sensor_id;sensor_type;location;lat;lon;timestamp;temperature;humidity
24103;DHT22;12278;53.058;9.028;2022-07-29T00:02:34;14.70;99.90
24103;DHT22;12278;53.058;9.028;2022-07-29T00:06:34;14.70;99.90
24103;DHT22;12278;53.058;9.028;2022-07-29T00:10:35;14.70;99.90
24103;DHT22;12278;53.058;9.028;2022-07-29T00:14:36;14.70;99.90
24103;DHT22;12278;53.058;9.028;2022-07-29T00:18:37;14.60;99.90
24103;DHT22;12278;53.058;9.028;2022-07-29T00:22:38;14.70;99.90
24103;DHT22;12278;53.058;9.028;2022-07-29T00:26:40;14.60;99.90
24103;DHT22;12278;53.058;9.028;2022-07-29T00:30:41;14.50;99.90
24103;DHT22;12278;53.058;9.028;2022-07-29T00:34:43;14.40;99.90
24103;DHT22;12278;53.058;9.028;2022-07-29T00:39:02;14.40;99.90
24103;DHT22;12278;53.058;9.028;2022-07-29T00:43:03;14.40;99.90
24103;DHT22;12278;53.058;9.028;2022-07-29T00:47:03;14.40;99.90
24103;DHT22;12278;53.058;9.028;2022-07-29T00:51:05;14.30;99.90
24103;DHT22;12278;53.058;9.028;2022-07-29T00:55:09;14.20;99.90
24103;DHT22;12278;53.058;9.028;2022-07-29T00:59:11;14.20;99.90
24103;DHT22;12278;53.058;9.028;2022-07-29T01:03:12;14.20;99.90
24103;DHT22;12278;53.058;9.028;2022-07-29T01:07:15;14.10;99.90
24103;DHT22;12278;53.058;9.028;2022-07-29T01:11:16;14.10;99.90
24103;DHT22;12278;53.058;9.028;2022-07-29T01:15:20;14.20;99.90
24103;DHT22;12278;53.058;9.028;2022-07-29T01:36:11;14.10;99.90
24103;DHT22;12278;53.058;9.028;2022-07-29T01:40:26;14.00;99.90
24103;DHT22;12278;53.058;9.028;2022-07-29T01:44:34;13.90;99.90
24103;DHT22;12278;53.058;9.028;2022-07-29T01:48:41;13.90;99.90
24103;DHT22;12278;53.058;9.028;2022-07-29T01:52:52;14.00;99.90
24103;DHT22;12278;53.058;9.028;2022-07-29T01:56:56;14.00;99.90
24103;DHT22;12278;53.058;9.028;2022-07-29T02:00:59;13.90;99.90
24103;DHT22;12278;53.058;9.028;2022-07-29T02:05:03;14.10;99.90
24103;DHT22;12278;53.058;9.028;2022-07-29T02:09:06;14.00;99.90
24103;DHT22;12278;53.058;9.028;2022-07-29T02:13:09;14.10;99.90
24103;DHT22;12278;53.058;9.028;2022-07-29T02:17:12;14.10;99.90
24103;DHT22;12278;53.058;9.028;2022-07-29T02:21:13;14.10;99.90
24103;DHT22;12278;53.058;9.028;2022-07-29T02:25:21;14.00;99.90
24103;DHT22;12278;53.058;9.028;2022-07-29T02:29:25;14.10;99.90
24103;DHT22;12278;53.058;9.028;2022-07-29T02:33:29;14.10;99.90
24103;DHT22;12278;53.058;9.028;2022-07-29T02:37:32;14.10;99.90
24103;DHT22;12278;53.058;9.028;2022-07-29T02:41:38;14.10;99.90
24103;DHT22;12278;53.058;9.028;2022-07-29T02:45:42;14.00;99.90
24103;DHT22;12278;53.058;9.028;2022-07-29T02:54:26;13.90;99.90
24103;DHT22;12278;53.058;9.028;2022-07-29T02:58:34;13.80;99.90
24103;DHT22;12278;53.058;9.028;2022-07-29T03:02:43;13.90;99.90
24103;DHT22;12278;53.058;9.028;2022-07-29T03:06:45;13.90;99.90
24103;DHT22;12278;53.058;9.028;2022-07-29T03:10:47;14.00;99.90
24103;DHT22;12278;53.058;9.028;2022-07-29T03:14:48;14.00;99.90
24103;DHT22;12278;53.058;9.028;2022-07-29T03:18:49;14.10;99.90
24103;DHT22;12278;53.058;9.028;2022-07-29T03:22:51;14.10;99.90
24103;DHT22;12278;53.058;9.028;2022-07-29T03:26:52;14.00;99.90
24103;DHT22;12278;53.058;9.028;2022-07-29T03:30:53;13.90;99.90
24103;DHT22;12278;53.058;9.028;2022-07-29T03:34:54;13.90;99.90
24103;DHT22;12278;53.058;9.028;2022-07-29T03:38:55;13.90;99.90
24103;DHT22;12278;53.058;9.028;2022-07-29T03:42:56;14.00;99.90
24103;DHT22;12278;53.058;9.028;2022-07-29T03:47:00;14.00;99.90
24103;DHT22;12278;53.058;9.028;2022-07-29T03:51:03;14.00;99.90
24103;DHT22;12278;53.058;9.028;2022-07-29T03:55:04;14.10;99.90
24103;DHT22;12278;53.058;9.028;2022-07-29T03:59:05;14.20;99.90
24103;DHT22;12278;53.058;9.028;2022-07-29T04:03:09;14.20;99.90
24103;DHT22;12278;53.058;9.028;2022-07-29T04:07:12;14.20;99.90
24103;DHT22;12278;53.058;9.028;2022-07-29T04:11:14;14.20;99.90
24103;DHT22;12278;53.058;9.028;2022-07-29T04:15:15;14.20;99.90
24103;DHT22;12278;53.058;9.028;2022-07-29T04:19:17;14.10;99.90
24103;DHT22;12278;53.058;9.028;2022-07-29T04:23:17;14.20;99.90
24103;DHT22;12278;53.058;9.028;2022-07-29T04:27:18;14.20;99.90
24103;DHT22;12278;53.058;9.028;2022-07-29T04:31:19;14.20;99.90
24103;DHT22;12278;53.058;9.028;2022-07-29T04:35:20;14.20;99.90
24103;DHT22;12278;53.058;9.028;2022-07-29T04:39:20;14.40;99.90
24103;DHT22;12278;53.058;9.028;2022-07-29T04:43:21;14.30;99.90
24103;DHT22;12278;53.058;9.028;2022-07-29T04:47:22;14.30;99.90
24103;DHT22;12278;53.058;9.028;2022-07-29T04:51:22;14.50;99.90
24103;DHT22;12278;53.058;9.028;2022-07-29T04:55:23;14.50;99.90
24103;DHT22;12278;53.058;9.028;2022-07-29T04:59:25;14.50;99.90
24103;DHT22;12278;53.058;9.028;2022-07-29T05:03:26;14.50;99.90
24103;DHT22;12278;53.058;9.028;2022-07-29T05:07:27;14.60;99.90
24103;DHT22;12278;53.058;9.028;2022-07-29T05:11:28;14.60;99.90
24103;DHT22;12278;53.058;9.028;2022-07-29T05:15:28;14.70;99.90
24103;DHT22;12278;53.058;9.028;2022-07-29T05:19:29;14.90;99.90
24103;DHT22;12278;53.058;9.028;2022-07-29T05:23:30;15.00;99.90
24103;DHT22;12278;53.058;9.028;2022-07-29T05:27:31;15.00;99.90
24103;DHT22;12278;53.058;9.028;2022-07-29T05:31:31;15.20;99.90
24103;DHT22;12278;53.058;9.028;2022-07-29T05:35:34;15.20;99.90
24103;DHT22;12278;53.058;9.028;2022-07-29T05:39:35;15.30;99.90
24103;DHT22;12278;53.058;9.028;2022-07-29T05:43:35;15.40;99.90
24103;DHT22;12278;53.058;9.028;2022-07-29T05:47:36;15.50;99.90
24103;DHT22;12278;53.058;9.028;2022-07-29T05:51:37;15.50;99.90
24103;DHT22;12278;53.058;9.028;2022-07-29T05:55:37;15.70;99.90
24103;DHT22;12278;53.058;9.028;2022-07-29T05:59:38;15.70;99.90
24103;DHT22;12278;53.058;9.028;2022-07-29T06:03:39;15.90;99.90
24103;DHT22;12278;53.058;9.028;2022-07-29T06:07:41;16.00;99.90
24103;DHT22;12278;53.058;9.028;2022-07-29T06:11:42;16.00;99.90
24103;DHT22;12278;53.058;9.028;2022-07-29T06:15:43;16.00;99.90
24103;DHT22;12278;53.058;9.028;2022-07-29T06:19:43;16.00;99.90
24103;DHT22;12278;53.058;9.028;2022-07-29T06:23:44;16.10;99.90
24103;DHT22;12278;53.058;9.028;2022-07-29T06:27:45;16.10;99.90
24103;DHT22;12278;53.058;9.028;2022-07-29T06:31:46;16.10;99.90
24103;DHT22;12278;53.058;9.028;2022-07-29T06:35:47;16.10;99.90
24103;DHT22;12278;53.058;9.028;2022-07-29T06:39:49;16.30;99.90
24103;DHT22;12278;53.058;9.028;2022-07-29T06:44:10;16.40;99.90
24103;DHT22;12278;53.058;9.028;2022-07-29T06:48:10;16.50;99.90
24103;DHT22;12278;53.058;9.028;2022-07-29T06:52:11;16.60;99.90
24103;DHT22;12278;53.058;9.028;2022-07-29T06:56:12;16.70;99.90
24103;DHT22;12278;53.058;9.028;2022-07-29T07:00:14;16.80;99.90
24103;DHT22;12278;53.058;9.028;2022-07-29T07:04:18;16.90;99.90
24103;DHT22;12278;53.058;9.028;2022-07-29T07:08:20;17.00;99.90
24103;DHT22;12278;53.058;9.028;2022-07-29T07:12:22;17.00;99.90
24103;DHT22;12278;53.058;9.028;2022-07-29T07:16:23;17.20;99.90
24103;DHT22;12278;53.058;9.028;2022-07-29T07:20:24;17.30;99.90
24103;DHT22;12278;53.058;9.028;2022-07-29T07:24:25;17.30;99.90
24103;DHT22;12278;53.058;9.028;2022-07-29T07:28:26;17.60;99.90
24103;DHT22;12278;53.058;9.028;2022-07-29T07:32:27;17.90;99.90
24103;DHT22;12278;53.058;9.028;2022-07-29T07:36:28;18.50;99.90
24103;DHT22;12278;53.058;9.028;2022-07-29T07:40:29;18.50;99.90
24103;DHT22;12278;53.058;9.028;2022-07-29T07:44:31;19.10;99.90
24103;DHT22;12278;53.058;9.028;2022-07-29T07:48:31;19.60;99.90
24103;DHT22;12278;53.058;9.028;2022-07-29T07:52:49;19.80;99.90
24103;DHT22;12278;53.058;9.028;2022-07-29T07:56:55;19.80;99.90
24103;DHT22;12278;53.058;9.028;2022-07-29T08:00:56;20.30;99.90
24103;DHT22;12278;53.058;9.028;2022-07-29T08:04:57;20.30;99.90
24103;DHT22;12278;53.058;9.028;2022-07-29T08:08:57;19.90;99.90
24103;DHT22;12278;53.058;9.028;2022-07-29T08:12:58;19.60;99.90
24103;DHT22;12278;53.058;9.028;2022-07-29T08:17:02;20.20;99.90
24103;DHT22;12278;53.058;9.028;2022-07-29T08:21:03;21.20;99.90
24103;DHT22;12278;53.058;9.028;2022-07-29T08:25:05;22.00;99.90
24103;DHT22;12278;53.058;9.028;2022-07-29T08:29:06;22.50;99.90
24103;DHT22;12278;53.058;9.028;2022-07-29T08:33:07;22.80;99.90
24103;DHT22;12278;53.058;9.028;2022-07-29T08:37:07;22.50;99.90
24103;DHT22;12278;53.058;9.028;2022-07-29T08:41:08;23.00;99.90
24103;DHT22;12278;53.058;9.028;2022-07-29T08:45:09;23.00;99.90
24103;DHT22;12278;53.058;9.028;2022-07-29T08:49:11;23.20;99.90
24103;DHT22;12278;53.058;9.028;2022-07-29T08:53:13;23.90;99.90
24103;DHT22;12278;53.058;9.028;2022-07-29T08:57:16;24.30;99.90
24103;DHT22;12278;53.058;9.028;2022-07-29T09:01:23;24.70;98.90
24103;DHT22;12278;53.058;9.028;2022-07-29T09:05:26;24.70;97.80
24103;DHT22;12278;53.058;9.028;2022-07-29T09:09:28;24.30;97.50
24103;DHT22;12278;53.058;9.028;2022-07-29T09:13:29;24.00;98.90
24103;DHT22;12278;53.058;9.028;2022-07-29T09:17:49;23.80;99.00
24103;DHT22;12278;53.058;9.028;2022-07-29T09:21:50;24.20;98.30
24103;DHT22;12278;53.058;9.028;2022-07-29T09:26:05;24.90;98.10
24103;DHT22;12278;53.058;9.028;2022-07-29T09:30:08;25.40;97.60
24103;DHT22;12278;53.058;9.028;2022-07-29T09:34:13;25.80;95.80
24103;DHT22;12278;53.058;9.028;2022-07-29T09:38:15;25.70;96.10
24103;DHT22;12278;53.058;9.028;2022-07-29T09:42:28;26.00;96.00
24103;DHT22;12278;53.058;9.028;2022-07-29T09:46:29;26.30;95.90
24103;DHT22;12278;53.058;9.028;2022-07-29T09:50:38;26.50;94.80
24103;DHT22;12278;53.058;9.028;2022-07-29T09:54:40;26.60;93.90
24103;DHT22;12278;53.058;9.028;2022-07-29T09:58:41;26.90;93.70
24103;DHT22;12278;53.058;9.028;2022-07-29T10:02:43;27.00;93.00
24103;DHT22;12278;53.058;9.028;2022-07-29T10:06:57;26.50;93.30
24103;DHT22;12278;53.058;9.028;2022-07-29T10:11:15;26.00;93.50
24103;DHT22;12278;53.058;9.028;2022-07-29T10:15:16;25.40;94.70
24103;DHT22;12278;53.058;9.028;2022-07-29T10:19:18;25.40;94.10
24103;DHT22;12278;53.058;9.028;2022-07-29T10:23:19;25.30;93.90
24103;DHT22;12278;53.058;9.028;2022-07-29T10:27:20;25.80;94.00
24103;DHT22;12278;53.058;9.028;2022-07-29T10:31:28;26.00;93.70
24103;DHT22;12278;53.058;9.028;2022-07-29T10:35:43;25.90;92.90
24103;DHT22;12278;53.058;9.028;2022-07-29T10:40:53;25.90;94.10
24103;DHT22;12278;53.058;9.028;2022-07-29T10:44:48;25.70;93.50
24103;DHT22;12278;53.058;9.028;2022-07-29T10:53:10;25.40;93.60
24103;DHT22;12278;53.058;9.028;2022-07-29T11:01:29;24.90;93.20
24103;DHT22;12278;53.058;9.028;2022-07-29T11:05:51;24.90;93.50
24103;DHT22;12278;53.058;9.028;2022-07-29T11:14:13;25.10;93.40
24103;DHT22;12278;53.058;9.028;2022-07-29T11:18:14;25.30;93.10
24103;DHT22;12278;53.058;9.028;2022-07-29T11:22:34;25.60;92.50
24103;DHT22;12278;53.058;9.028;2022-07-29T11:26:37;25.90;92.80
24103;DHT22;12278;53.058;9.028;2022-07-29T11:30:52;25.70;92.30
24103;DHT22;12278;53.058;9.028;2022-07-29T11:35:22;25.40;92.80
24103;DHT22;12278;53.058;9.028;2022-07-29T11:39:27;25.50;92.80
24103;DHT22;12278;53.058;9.028;2022-07-29T11:47:56;27.50;91.30
24103;DHT22;12278;53.058;9.028;2022-07-29T11:51:59;28.60;89.80
24103;DHT22;12278;53.058;9.028;2022-07-29T11:56:03;28.90;87.50
24103;DHT22;12278;53.058;9.028;2022-07-29T12:00:08;29.10;87.50
24103;DHT22;12278;53.058;9.028;2022-07-29T12:04:10;29.20;87.10
24103;DHT22;12278;53.058;9.028;2022-07-29T12:12:16;29.80;85.10
24103;DHT22;12278;53.058;9.028;2022-07-29T12:16:18;29.10;84.50
24103;DHT22;12278;53.058;9.028;2022-07-29T12:20:28;28.30;86.00
24103;DHT22;12278;53.058;9.028;2022-07-29T12:24:43;27.60;88.40
24103;DHT22;12278;53.058;9.028;2022-07-29T12:28:44;26.90;88.30
24103;DHT22;12278;53.058;9.028;2022-07-29T12:32:47;26.60;90.30
24103;DHT22;12278;53.058;9.028;2022-07-29T12:36:49;26.70;90.30
24103;DHT22;12278;53.058;9.028;2022-07-29T12:40:52;26.70;90.80
24103;DHT22;12278;53.058;9.028;2022-07-29T12:44:54;26.60;90.30
24103;DHT22;12278;53.058;9.028;2022-07-29T12:48:55;26.60;91.30
24103;DHT22;12278;53.058;9.028;2022-07-29T12:53:08;26.60;90.80
24103;DHT22;12278;53.058;9.028;2022-07-29T12:57:11;26.70;91.60
24103;DHT22;12278;53.058;9.028;2022-07-29T13:01:16;26.80;90.80
24103;DHT22;12278;53.058;9.028;2022-07-29T13:05:19;26.80;90.90
24103;DHT22;12278;53.058;9.028;2022-07-29T13:09:21;26.90;91.00
24103;DHT22;12278;53.058;9.028;2022-07-29T13:13:24;27.40;90.80
24103;DHT22;12278;53.058;9.028;2022-07-29T13:17:26;28.60;89.70
24103;DHT22;12278;53.058;9.028;2022-07-29T13:21:29;29.50;86.90
24103;DHT22;12278;53.058;9.028;2022-07-29T13:25:31;29.20;85.50
24103;DHT22;12278;53.058;9.028;2022-07-29T13:29:32;28.30;87.30
24103;DHT22;12278;53.058;9.028;2022-07-29T13:33:33;27.30;90.00
24103;DHT22;12278;53.058;9.028;2022-07-29T13:37:35;26.80;90.00
24103;DHT22;12278;53.058;9.028;2022-07-29T13:41:38;26.50;90.50
24103;DHT22;12278;53.058;9.028;2022-07-29T13:45:39;26.70;90.90
24103;DHT22;12278;53.058;9.028;2022-07-29T13:49:40;26.50;90.70
24103;DHT22;12278;53.058;9.028;2022-07-29T13:53:41;26.10;91.40
24103;DHT22;12278;53.058;9.028;2022-07-29T13:57:41;25.70;91.40
24103;DHT22;12278;53.058;9.028;2022-07-29T14:01:42;25.60;92.10
24103;DHT22;12278;53.058;9.028;2022-07-29T14:05:44;25.50;91.70
24103;DHT22;12278;53.058;9.028;2022-07-29T14:09:45;25.40;91.90
24103;DHT22;12278;53.058;9.028;2022-07-29T14:13:45;25.40;92.40
24103;DHT22;12278;53.058;9.028;2022-07-29T14:17:46;25.70;92.30
24103;DHT22;12278;53.058;9.028;2022-07-29T14:21:47;25.80;91.90
24103;DHT22;12278;53.058;9.028;2022-07-29T14:25:48;25.80;92.00
24103;DHT22;12278;53.058;9.028;2022-07-29T14:29:49;25.80;91.50
24103;DHT22;12278;53.058;9.028;2022-07-29T14:33:50;26.10;91.20
24103;DHT22;12278;53.058;9.028;2022-07-29T14:37:50;26.40;90.60
24103;DHT22;12278;53.058;9.028;2022-07-29T14:41:51;26.70;90.50
24103;DHT22;12278;53.058;9.028;2022-07-29T14:45:52;26.60;90.10
24103;DHT22;12278;53.058;9.028;2022-07-29T14:49:53;26.30;90.30
24103;DHT22;12278;53.058;9.028;2022-07-29T14:53:54;26.10;90.60
24103;DHT22;12278;53.058;9.028;2022-07-29T14:57:56;25.90;90.60
24103;DHT22;12278;53.058;9.028;2022-07-29T15:01:57;25.80;92.10
24103;DHT22;12278;53.058;9.028;2022-07-29T15:05:58;25.60;90.40
24103;DHT22;12278;53.058;9.028;2022-07-29T15:09:59;25.30;91.10
24103;DHT22;12278;53.058;9.028;2022-07-29T15:14:00;25.10;90.50
24103;DHT22;12278;53.058;9.028;2022-07-29T15:18:00;25.00;91.40
24103;DHT22;12278;53.058;9.028;2022-07-29T15:22:01;24.80;91.70
24103;DHT22;12278;53.058;9.028;2022-07-29T15:26:04;24.70;91.70
24103;DHT22;12278;53.058;9.028;2022-07-29T15:30:05;24.70;91.20
24103;DHT22;12278;53.058;9.028;2022-07-29T15:34:06;24.60;91.80
24103;DHT22;12278;53.058;9.028;2022-07-29T15:38:07;24.50;91.70
24103;DHT22;12278;53.058;9.028;2022-07-29T15:42:08;24.40;92.40
24103;DHT22;12278;53.058;9.028;2022-07-29T15:46:13;24.40;92.10
24103;DHT22;12278;53.058;9.028;2022-07-29T15:50:34;24.30;92.50
24103;DHT22;12278;53.058;9.028;2022-07-29T15:54:37;24.30;92.60
24103;DHT22;12278;53.058;9.028;2022-07-29T15:58:40;24.30;93.40
24103;DHT22;12278;53.058;9.028;2022-07-29T16:02:41;24.20;92.50
24103;DHT22;12278;53.058;9.028;2022-07-29T16:06:42;24.20;92.20
24103;DHT22;12278;53.058;9.028;2022-07-29T16:10:44;24.20;92.40
24103;DHT22;12278;53.058;9.028;2022-07-29T16:14:45;24.10;92.30
24103;DHT22;12278;53.058;9.028;2022-07-29T16:18:49;24.10;92.80
24103;DHT22;12278;53.058;9.028;2022-07-29T16:22:50;24.10;92.40
24103;DHT22;12278;53.058;9.028;2022-07-29T16:26:51;24.10;92.70
24103;DHT22;12278;53.058;9.028;2022-07-29T16:30:52;24.10;93.60
24103;DHT22;12278;53.058;9.028;2022-07-29T16:34:53;24.10;93.30
24103;DHT22;12278;53.058;9.028;2022-07-29T16:38:54;24.10;93.10
24103;DHT22;12278;53.058;9.028;2022-07-29T16:42:54;24.00;93.40
24103;DHT22;12278;53.058;9.028;2022-07-29T16:46:55;23.90;94.40
24103;DHT22;12278;53.058;9.028;2022-07-29T16:50:56;23.80;94.40
24103;DHT22;12278;53.058;9.028;2022-07-29T16:54:57;23.70;94.50
24103;DHT22;12278;53.058;9.028;2022-07-29T16:58:58;23.60;94.30
24103;DHT22;12278;53.058;9.028;2022-07-29T17:02:58;23.50;94.70
24103;DHT22;12278;53.058;9.028;2022-07-29T17:06:59;23.30;99.60
24103;DHT22;12278;53.058;9.028;2022-07-29T17:11:01;22.90;99.90
24103;DHT22;12278;53.058;9.028;2022-07-29T17:15:04;22.70;99.90
24103;DHT22;12278;53.058;9.028;2022-07-29T17:19:06;22.40;99.90
24103;DHT22;12278;53.058;9.028;2022-07-29T17:23:07;22.30;99.90
24103;DHT22;12278;53.058;9.028;2022-07-29T17:27:08;22.20;99.90
24103;DHT22;12278;53.058;9.028;2022-07-29T17:31:09;22.10;99.90
24103;DHT22;12278;53.058;9.028;2022-07-29T17:35:10;21.90;99.90
24103;DHT22;12278;53.058;9.028;2022-07-29T17:39:30;21.90;99.90
24103;DHT22;12278;53.058;9.028;2022-07-29T17:43:33;21.70;99.90
24103;DHT22;12278;53.058;9.028;2022-07-29T17:47:33;21.70;99.90
24103;DHT22;12278;53.058;9.028;2022-07-29T17:51:36;21.70;99.90
24103;DHT22;12278;53.058;9.028;2022-07-29T17:55:37;21.60;99.90
24103;DHT22;12278;53.058;9.028;2022-07-29T17:59:38;21.60;99.90
24103;DHT22;12278;53.058;9.028;2022-07-29T18:03:39;21.70;99.90
24103;DHT22;12278;53.058;9.028;2022-07-29T18:07:40;21.70;99.90
24103;DHT22;12278;53.058;9.028;2022-07-29T18:11:41;21.70;99.90
24103;DHT22;12278;53.058;9.028;2022-07-29T18:15:43;21.70;99.90
24103;DHT22;12278;53.058;9.028;2022-07-29T18:19:45;21.70;99.90
24103;DHT22;12278;53.058;9.028;2022-07-29T18:23:47;21.60;99.90
24103;DHT22;12278;53.058;9.028;2022-07-29T18:27:50;21.60;99.90
24103;DHT22;12278;53.058;9.028;2022-07-29T18:31:51;21.60;99.90
24103;DHT22;12278;53.058;9.028;2022-07-29T18:35:52;21.60;99.90
24103;DHT22;12278;53.058;9.028;2022-07-29T18:39:53;21.50;99.90
24103;DHT22;12278;53.058;9.028;2022-07-29T18:43:54;21.50;99.90
24103;DHT22;12278;53.058;9.028;2022-07-29T18:47:55;21.40;99.90
24103;DHT22;12278;53.058;9.028;2022-07-29T18:51:56;21.40;99.90
24103;DHT22;12278;53.058;9.028;2022-07-29T18:55:57;21.40;99.90
24103;DHT22;12278;53.058;9.028;2022-07-29T18:59:58;21.40;99.90
24103;DHT22;12278;53.058;9.028;2022-07-29T19:04:00;21.30;99.90
24103;DHT22;12278;53.058;9.028;2022-07-29T19:08:01;21.20;99.90
24103;DHT22;12278;53.058;9.028;2022-07-29T19:12:02;21.30;99.90
24103;DHT22;12278;53.058;9.028;2022-07-29T19:16:04;21.20;99.90
24103;DHT22;12278;53.058;9.028;2022-07-29T19:20:07;21.20;99.90
24103;DHT22;12278;53.058;9.028;2022-07-29T19:24:08;21.20;99.90
24103;DHT22;12278;53.058;9.028;2022-07-29T19:28:10;21.20;99.90
24103;DHT22;12278;53.058;9.028;2022-07-29T19:32:11;21.20;99.90
24103;DHT22;12278;53.058;9.028;2022-07-29T19:36:13;21.20;99.90
24103;DHT22;12278;53.058;9.028;2022-07-29T19:40:14;21.20;99.90
24103;DHT22;12278;53.058;9.028;2022-07-29T19:44:15;21.20;99.90
24103;DHT22;12278;53.058;9.028;2022-07-29T19:48:16;21.20;99.90
24103;DHT22;12278;53.058;9.028;2022-07-29T19:52:17;21.10;99.90
24103;DHT22;12278;53.058;9.028;2022-07-29T19:56:18;21.00;99.90
24103;DHT22;12278;53.058;9.028;2022-07-29T20:00:19;20.80;99.90
24103;DHT22;12278;53.058;9.028;2022-07-29T20:04:23;20.70;99.90
24103;DHT22;12278;53.058;9.028;2022-07-29T20:08:23;20.60;99.90
24103;DHT22;12278;53.058;9.028;2022-07-29T20:12:24;20.50;99.90
24103;DHT22;12278;53.058;9.028;2022-07-29T20:16:25;20.50;99.90
24103;DHT22;12278;53.058;9.028;2022-07-29T20:20:27;20.30;99.90
24103;DHT22;12278;53.058;9.028;2022-07-29T20:24:29;20.20;99.90
24103;DHT22;12278;53.058;9.028;2022-07-29T20:28:30;20.10;99.90
24103;DHT22;12278;53.058;9.028;2022-07-29T20:32:31;20.10;99.90
24103;DHT22;12278;53.058;9.028;2022-07-29T20:36:32;20.00;99.90
24103;DHT22;12278;53.058;9.028;2022-07-29T20:40:33;19.90;99.90
24103;DHT22;12278;53.058;9.028;2022-07-29T20:44:35;19.80;99.90
24103;DHT22;12278;53.058;9.028;2022-07-29T20:48:36;19.80;99.90
24103;DHT22;12278;53.058;9.028;2022-07-29T20:52:38;19.80;99.90
24103;DHT22;12278;53.058;9.028;2022-07-29T20:56:43;19.70;99.90
24103;DHT22;12278;53.058;9.028;2022-07-29T21:00:45;19.60;99.90
24103;DHT22;12278;53.058;9.028;2022-07-29T21:04:46;19.50;99.90
24103;DHT22;12278;53.058;9.028;2022-07-29T21:08:47;19.50;99.90
24103;DHT22;12278;53.058;9.028;2022-07-29T21:12:48;19.50;99.90
24103;DHT22;12278;53.058;9.028;2022-07-29T21:16:48;19.50;99.90
24103;DHT22;12278;53.058;9.028;2022-07-29T21:20:49;19.50;99.90
24103;DHT22;12278;53.058;9.028;2022-07-29T21:24:50;19.30;99.90
24103;DHT22;12278;53.058;9.028;2022-07-29T21:28:51;19.10;99.90
24103;DHT22;12278;53.058;9.028;2022-07-29T21:32:52;19.00;99.90
24103;DHT22;12278;53.058;9.028;2022-07-29T21:36:53;18.90;99.90
24103;DHT22;12278;53.058;9.028;2022-07-29T21:40:54;18.80;99.90
24103;DHT22;12278;53.058;9.028;2022-07-29T21:44:55;18.70;99.90
24103;DHT22;12278;53.058;9.028;2022-07-29T21:48:56;18.60;99.90
24103;DHT22;12278;53.058;9.028;2022-07-29T21:52:57;18.60;99.90
24103;DHT22;12278;53.058;9.028;2022-07-29T21:56:58;18.50;99.90
24103;DHT22;12278;53.058;9.028;2022-07-29T22:00:59;18.40;99.90
24103;DHT22;12278;53.058;9.028;2022-07-29T22:05:00;18.40;99.90
24103;DHT22;12278;53.058;9.028;2022-07-29T22:09:00;18.40;99.90
24103;DHT22;12278;53.058;9.028;2022-07-29T22:13:01;18.40;99.90
24103;DHT22;12278;53.058;9.028;2022-07-29T22:17:03;18.50;99.90
24103;DHT22;12278;53.058;9.028;2022-07-29T22:21:04;18.40;99.90
24103;DHT22;12278;53.058;9.028;2022-07-29T22:25:05;18.40;99.90
24103;DHT22;12278;53.058;9.028;2022-07-29T22:29:07;18.40;99.90
24103;DHT22;12278;53.058;9.028;2022-07-29T22:33:09;18.30;99.90
24103;DHT22;12278;53.058;9.028;2022-07-29T22:37:10;18.20;99.90
24103;DHT22;12278;53.058;9.028;2022-07-29T22:41:11;18.20;99.90
24103;DHT22;12278;53.058;9.028;2022-07-29T22:45:12;18.10;99.90
24103;DHT22;12278;53.058;9.028;2022-07-29T22:49:13;18.20;99.90
24103;DHT22;12278;53.058;9.028;2022-07-29T22:53:15;18.20;99.90
24103;DHT22;12278;53.058;9.028;2022-07-29T22:57:16;18.10;99.90
24103;DHT22;12278;53.058;9.028;2022-07-29T23:01:16;18.10;99.90
24103;DHT22;12278;53.058;9.028;2022-07-29T23:05:17;18.10;99.90
24103;DHT22;12278;53.058;9.028;2022-07-29T23:09:18;18.00;99.90
24103;DHT22;12278;53.058;9.028;2022-07-29T23:13:19;18.10;99.90
24103;DHT22;12278;53.058;9.028;2022-07-29T23:17:20;18.10;99.90
24103;DHT22;12278;53.058;9.028;2022-07-29T23:21:21;18.10;99.90
24103;DHT22;12278;53.058;9.028;2022-07-29T23:25:22;18.10;99.90
24103;DHT22;12278;53.058;9.028;2022-07-29T23:29:23;18.10;99.90
24103;DHT22;12278;53.058;9.028;2022-07-29T23:33:24;18.20;99.90
24103;DHT22;12278;53.058;9.028;2022-07-29T23:37:25;18.20;99.90
24103;DHT22;12278;53.058;9.028;2022-07-29T23:41:30;18.20;99.90
24103;DHT22;12278;53.058;9.028;2022-07-29T23:45:30;18.10;99.90
24103;DHT22;12278;53.058;9.028;2022-07-29T23:49:31;18.30;99.90
24103;DHT22;12278;53.058;9.028;2022-07-29T23:53:36;18.30;99.90
24103;DHT22;12278;53.058;9.028;2022-07-29T23:57:39;18.30;99.90
